createdAt,value
2022-08-19T00:00:20.341Z,0
2022-08-19T00:00:45.757Z,0
2022-08-19T00:01:14.632Z,0
2022-08-19T00:01:53.374Z,0
2022-08-19T00:02:16.736Z,0
2022-08-19T00:02:50.121Z,0
2022-08-19T00:03:49.439Z,0
2022-08-19T00:04:20.214Z,0
2022-08-19T00:04:52.768Z,0
2022-08-19T00:05:24.359Z,0
2022-08-19T00:05:55.111Z,0
2022-08-19T00:06:26.521Z,0
2022-08-19T00:06:55.794Z,0
2022-08-19T00:07:28.383Z,0
2022-08-19T00:08:52.103Z,0
2022-08-19T00:09:01.820Z,0
2022-08-19T00:09:31.829Z,0
2022-08-19T00:10:02.653Z,0
2022-08-19T00:10:33.097Z,0
2022-08-19T00:11:04.810Z,0
2022-08-19T00:11:36.222Z,0
2022-08-19T00:12:12.878Z,0
2022-08-19T00:12:36.668Z,0
2022-08-19T00:13:10.612Z,0
2022-08-19T00:13:39.569Z,0
2022-08-19T00:14:13.237Z,0
2022-08-19T00:14:43.420Z,.35
2022-08-19T00:15:14.091Z,0
2022-08-19T00:15:45.655Z,0
2022-08-19T00:16:14.155Z,0
2022-08-19T00:16:45.570Z,0
2022-08-19T00:17:20.519Z,0
2022-08-19T00:17:47.094Z,0
2022-08-19T00:18:17.849Z,0
2022-08-19T00:18:48.244Z,0
2022-08-19T00:19:21.021Z,0
2022-08-19T00:19:51.721Z,0
2022-08-19T00:20:22.879Z,0
2022-08-19T00:20:54.481Z,0
2022-08-19T00:21:41.641Z,0
2022-08-19T00:21:56.487Z,0
2022-08-19T00:22:26.407Z,0
2022-08-19T00:22:56.759Z,0
2022-08-19T00:23:28.287Z,0
2022-08-19T00:24:02.295Z,0
2022-08-19T00:24:31.898Z,0
2022-08-19T00:25:02.759Z,0
2022-08-19T00:25:34.091Z,.35
2022-08-19T00:26:07.470Z,0
2022-08-19T00:26:37.846Z,0
2022-08-19T00:27:25.780Z,0
2022-08-19T00:27:36.121Z,0
2022-08-19T00:28:12.411Z,0
2022-08-19T00:28:42.344Z,0
2022-08-19T00:29:09.377Z,0
2022-08-19T00:29:40.808Z,0
2022-08-19T00:30:47.331Z,0
2022-08-19T00:31:13.195Z,0
2022-08-19T00:31:47.942Z,0
2022-08-19T00:32:21.001Z,0
2022-08-19T00:32:46.384Z,0
2022-08-19T00:33:27.816Z,0
2022-08-19T00:33:48.517Z,0
2022-08-19T00:34:26.108Z,0
2022-08-19T00:35:08.299Z,0
2022-08-19T00:35:21.667Z,0
2022-08-19T00:35:55.956Z,0
2022-08-19T00:36:25.477Z,0
2022-08-19T00:36:54.059Z,0
2022-08-19T00:37:25.137Z,0
2022-08-19T00:38:10.652Z,0
2022-08-19T00:38:37.662Z,0
2022-08-19T00:38:58.315Z,0
2022-08-19T00:39:31.161Z,0
2022-08-19T00:40:08.959Z,0
2022-08-19T00:40:33.107Z,0
2022-08-19T00:41:02.836Z,0
2022-08-19T00:41:33.129Z,0
2022-08-19T00:42:04.045Z,0
2022-08-19T00:42:34.735Z,0
2022-08-19T00:43:05.616Z,0
2022-08-19T00:43:38.872Z,0
2022-08-19T00:44:07.489Z,0
2022-08-19T00:44:38.192Z,0
2022-08-19T00:45:12.065Z,0
2022-08-19T00:45:41.647Z,0
2022-08-19T00:46:12.383Z,0
2022-08-19T00:46:43.319Z,0
2022-08-19T00:47:14.376Z,0
2022-08-19T00:47:45.306Z,0
2022-08-19T00:48:46.451Z,.35
2022-08-19T00:49:17.172Z,0
2022-08-19T00:49:48.133Z,0
2022-08-19T00:50:21.885Z,0
2022-08-19T00:50:51.884Z,0
2022-08-19T00:51:22.180Z,0
2022-08-19T00:51:53.327Z,0
2022-08-19T00:52:23.685Z,0
2022-08-19T00:52:55.744Z,0
2022-08-19T00:53:27.431Z,0
2022-08-19T00:53:56.931Z,0
2022-08-19T00:54:31.002Z,0
2022-08-19T00:54:58.365Z,0
2022-08-19T00:55:30.980Z,0
2022-08-19T00:56:01.764Z,0
2022-08-19T00:56:33.908Z,0
2022-08-19T00:57:05.535Z,0
2022-08-19T00:57:34.629Z,0
2022-08-19T00:58:09.720Z,0
2022-08-19T00:58:35.623Z,0
2022-08-19T00:59:06.355Z,0
2022-08-19T00:59:58.740Z,0
2022-08-19T01:00:11.854Z,0
2022-08-19T01:00:49.958Z,0
2022-08-19T01:01:12.267Z,0
2022-08-19T01:01:42.750Z,0
2022-08-19T01:02:13.158Z,0
2022-08-19T01:02:44.478Z,0
2022-08-19T01:03:15.373Z,0
2022-08-19T01:03:57.821Z,0
2022-08-19T01:04:16.724Z,0
2022-08-19T01:04:54.747Z,0
2022-08-19T01:05:36.052Z,0
2022-08-19T01:05:49.742Z,0
2022-08-19T01:06:21.810Z,0
2022-08-19T01:06:52.763Z,0
2022-08-19T01:07:23.327Z,0
2022-08-19T01:07:53.873Z,0
2022-08-19T01:08:24.864Z,0
2022-08-19T01:08:56.501Z,0
2022-08-19T01:09:27.181Z,0
2022-08-19T01:09:57.553Z,0
2022-08-19T01:10:30.720Z,0
2022-08-19T01:10:59.229Z,0
2022-08-19T01:11:32.363Z,0
2022-08-19T01:12:03.511Z,0
2022-08-19T01:12:37.534Z,.35
2022-08-19T01:13:49.135Z,0
2022-08-19T01:14:06.669Z,.35
2022-08-19T01:14:36.469Z,0
2022-08-19T01:15:08.516Z,0
2022-08-19T01:15:41.627Z,.72
2022-08-19T01:16:09.357Z,0
2022-08-19T01:16:42.226Z,0
2022-08-19T01:17:13.050Z,.35
2022-08-19T01:17:43.652Z,0
2022-08-19T01:18:13.773Z,0
2022-08-19T01:18:46.319Z,0
2022-08-19T01:19:15.633Z,0
2022-08-19T01:19:51.562Z,0
2022-08-19T01:20:18.137Z,0
2022-08-19T01:20:48.916Z,0
2022-08-19T01:21:24.873Z,0
2022-08-19T01:21:51.554Z,0
2022-08-19T01:22:30.004Z,0
2022-08-19T01:22:54.535Z,.35
2022-08-19T01:23:24.660Z,0
2022-08-19T01:23:55.965Z,0
2022-08-19T01:24:28.443Z,0
2022-08-19T01:24:58.192Z,.35
2022-08-19T01:25:33.051Z,0
2022-08-19T01:25:59.013Z,0
2022-08-19T01:26:31.283Z,0
2022-08-19T01:27:43.275Z,0
2022-08-19T01:28:10.974Z,0
2022-08-19T01:28:39.821Z,0
2022-08-19T01:29:07.178Z,0
2022-08-19T01:29:35.844Z,0
2022-08-19T01:30:38.708Z,0
2022-08-19T01:31:08.822Z,0
2022-08-19T01:31:40.568Z,.35
2022-08-19T01:32:32.011Z,0
2022-08-19T01:32:43.693Z,0
2022-08-19T01:33:13.355Z,0
2022-08-19T01:33:44.185Z,0
2022-08-19T01:34:15.552Z,0
2022-08-19T01:34:46.920Z,0
2022-08-19T01:35:16.541Z,0
2022-08-19T01:35:48.650Z,0
2022-08-19T01:36:18.559Z,0
2022-08-19T01:36:49.734Z,.35
2022-08-19T01:37:24.928Z,0
2022-08-19T01:37:54.107Z,0
2022-08-19T01:38:23.288Z,.35
2022-08-19T01:38:54.170Z,0
2022-08-19T01:39:24.328Z,0
2022-08-19T01:39:55.776Z,0
2022-08-19T01:40:29.712Z,0
2022-08-19T01:41:01.320Z,0
2022-08-19T01:41:28.559Z,0
2022-08-19T01:42:01.304Z,0
2022-08-19T01:42:30.820Z,0
2022-08-19T01:43:11.379Z,.35
2022-08-19T01:43:33.917Z,0
2022-08-19T01:44:17.788Z,0
2022-08-19T01:45:13.109Z,0
2022-08-19T01:45:38.029Z,0
2022-08-19T01:46:07.857Z,0
2022-08-19T01:46:43.978Z,0
2022-08-19T01:47:09.286Z,0
2022-08-19T01:47:40.487Z,0
2022-08-19T01:48:18.530Z,0
2022-08-19T01:48:43.608Z,0
2022-08-19T01:49:17.243Z,0
2022-08-19T01:49:46.756Z,0
2022-08-19T01:50:34.362Z,0
2022-08-19T01:50:46.432Z,0
2022-08-19T01:51:17.406Z,0
2022-08-19T01:51:48.925Z,.35
2022-08-19T01:52:19.841Z,0
2022-08-19T01:53:05.833Z,0
2022-08-19T01:53:23.288Z,0
2022-08-19T01:53:54.315Z,0
2022-08-19T01:54:27.867Z,0
2022-08-19T01:54:54.811Z,0
2022-08-19T01:55:26.695Z,0
2022-08-19T01:56:01.690Z,0
2022-08-19T01:56:27.679Z,0
2022-08-19T01:57:03.161Z,0
2022-08-19T01:57:29.640Z,0
2022-08-19T01:58:02.482Z,0
2022-08-19T01:59:06.985Z,0
2022-08-19T01:59:35.289Z,0
2022-08-19T02:00:11.521Z,0
2022-08-19T02:00:38.220Z,.35
2022-08-19T02:01:16.695Z,1.07
2022-08-19T02:01:42.978Z,0
2022-08-19T02:02:08.710Z,0
2022-08-19T02:02:39.365Z,0
2022-08-19T02:03:12.775Z,0
2022-08-19T02:03:42.410Z,0
2022-08-19T02:04:13.079Z,0
2022-08-19T02:04:44.737Z,0
2022-08-19T02:05:16.442Z,0
2022-08-19T02:05:46.311Z,0
2022-08-19T02:06:17.372Z,.72
2022-08-19T02:06:48.646Z,.35
2022-08-19T02:07:19.565Z,0
2022-08-19T02:07:50.903Z,0
2022-08-19T02:08:26.087Z,0
2022-08-19T02:08:54.394Z,0
2022-08-19T02:09:24.221Z,0
2022-08-19T02:09:56.330Z,0
2022-08-19T02:10:28.397Z,0
2022-08-19T02:10:56.125Z,0
2022-08-19T02:11:26.982Z,0
2022-08-19T02:12:03.112Z,.35
2022-08-19T02:12:28.627Z,0
2022-08-19T02:12:59.555Z,0
2022-08-19T02:13:30.626Z,0
2022-08-19T02:14:05.969Z,0
2022-08-19T02:14:34.052Z,0
2022-08-19T02:15:06.927Z,0
2022-08-19T02:15:35.695Z,0
2022-08-19T02:16:08.047Z,0
2022-08-19T02:16:36.505Z,0
2022-08-19T02:17:07.996Z,0
2022-08-19T02:17:38.820Z,0
2022-08-19T02:18:10.759Z,.35
2022-08-19T02:18:46.103Z,.35
2022-08-19T02:19:48.647Z,0
2022-08-19T02:20:15.735Z,0
2022-08-19T02:20:54.195Z,0
2022-08-19T02:21:16.866Z,0
2022-08-19T02:21:47.275Z,0
2022-08-19T02:22:18.548Z,0
2022-08-19T02:22:48.907Z,0
2022-08-19T02:23:19.711Z,0
2022-08-19T02:23:55.512Z,0
2022-08-19T02:24:22.376Z,0
2022-08-19T02:24:54.222Z,0
2022-08-19T02:25:25.792Z,0
2022-08-19T02:25:56.278Z,0
2022-08-19T02:26:26.699Z,0
2022-08-19T02:26:57.417Z,0
2022-08-19T02:27:27.684Z,0
2022-08-19T02:27:58.859Z,0
2022-08-19T02:28:34.317Z,0
2022-08-19T02:29:01.324Z,0
2022-08-19T02:29:31.727Z,0
2022-08-19T02:30:04.073Z,0
2022-08-19T02:30:36.332Z,0
2022-08-19T02:31:08.762Z,0
2022-08-19T02:31:36.546Z,0
2022-08-19T02:32:10.313Z,1.43
2022-08-19T02:32:45.017Z,0
2022-08-19T02:33:09.906Z,0
2022-08-19T02:33:40.207Z,0
2022-08-19T02:34:11.616Z,0
2022-08-19T02:34:42.623Z,0
2022-08-19T02:35:30.189Z,0
2022-08-19T02:35:45.623Z,0
2022-08-19T02:36:21.114Z,0
2022-08-19T02:36:51.955Z,0
2022-08-19T02:37:18.179Z,1.07
2022-08-19T02:37:47.957Z,.35
2022-08-19T02:38:22.684Z,1.07
2022-08-19T02:38:54.949Z,0
2022-08-19T02:39:21.046Z,0
2022-08-19T02:39:52.235Z,.72
2022-08-19T02:40:24.363Z,0
2022-08-19T02:40:55.799Z,0
2022-08-19T02:41:28.471Z,.35
2022-08-19T02:41:57.502Z,0
2022-08-19T02:42:27.551Z,.35
2022-08-19T02:42:57.883Z,0
2022-08-19T02:43:28.935Z,0
2022-08-19T02:44:29.586Z,0
2022-08-19T02:45:03.024Z,.35
2022-08-19T02:45:32.706Z,0
2022-08-19T02:46:05.447Z,0
2022-08-19T02:46:36.329Z,0
2022-08-19T02:47:07.846Z,.35
2022-08-19T02:47:36.930Z,0
2022-08-19T02:48:12.713Z,0
2022-08-19T02:48:38.810Z,.35
2022-08-19T02:49:46.149Z,.35
2022-08-19T02:50:12.608Z,0
2022-08-19T02:51:18.997Z,0
2022-08-19T02:51:55.509Z,0
2022-08-19T02:52:17.069Z,0
2022-08-19T02:52:48.258Z,0
2022-08-19T02:53:18.055Z,0
2022-08-19T02:53:50.536Z,0
2022-08-19T02:54:20.293Z,0
2022-08-19T02:54:51.059Z,.35
2022-08-19T02:55:22.479Z,0
2022-08-19T02:55:53.217Z,0
2022-08-19T02:56:29.539Z,.35
2022-08-19T02:56:59.848Z,0
2022-08-19T02:57:27.393Z,0
2022-08-19T02:57:57.640Z,0
2022-08-19T02:58:28.083Z,0
2022-08-19T02:58:58.792Z,.35
2022-08-19T02:59:31.079Z,1.07
2022-08-19T03:00:02.547Z,1.43
2022-08-19T03:00:32.069Z,0
2022-08-19T03:01:03.566Z,0
2022-08-19T03:01:41.150Z,0
2022-08-19T03:02:07.684Z,0
2022-08-19T03:02:37.955Z,0
2022-08-19T03:03:08.543Z,0
2022-08-19T03:03:39.210Z,.35
2022-08-19T03:04:09.180Z,0
2022-08-19T03:04:43.011Z,0
2022-08-19T03:05:11.400Z,0
2022-08-19T03:05:48.470Z,0
2022-08-19T03:06:13.150Z,0
2022-08-19T03:06:44.799Z,0
2022-08-19T03:07:16.910Z,0
2022-08-19T03:07:51.087Z,1.43
2022-08-19T03:08:18.497Z,1.07
2022-08-19T03:08:48.055Z,.35
2022-08-19T03:09:20.271Z,0
2022-08-19T03:09:50.155Z,0
2022-08-19T03:10:21.621Z,1.07
2022-08-19T03:10:53.167Z,0
2022-08-19T03:11:23.211Z,.72
2022-08-19T03:11:56.374Z,1.07
2022-08-19T03:12:31.846Z,1.07
2022-08-19T03:12:57.530Z,1.07
2022-08-19T03:13:29.175Z,1.07
2022-08-19T03:13:58.510Z,0
2022-08-19T03:14:29.712Z,0
2022-08-19T03:14:59.883Z,.72
2022-08-19T03:15:31.394Z,1.07
2022-08-19T03:16:02.726Z,0
2022-08-19T03:16:40.716Z,0
2022-08-19T03:17:06.858Z,0
2022-08-19T03:17:36.641Z,1.80
2022-08-19T03:18:07.576Z,.35
2022-08-19T03:18:37.706Z,.35
2022-08-19T03:19:08.668Z,0
2022-08-19T03:19:42.095Z,0
2022-08-19T03:20:10.665Z,.72
2022-08-19T03:20:50.136Z,0
2022-08-19T03:21:21.857Z,0
2022-08-19T03:21:51.898Z,0
2022-08-19T03:22:16.649Z,.35
2022-08-19T03:22:47.016Z,0
2022-08-19T03:23:33.629Z,1.43
2022-08-19T03:23:48.519Z,0
2022-08-19T03:24:18.592Z,0
2022-08-19T03:24:49.243Z,1.07
2022-08-19T03:25:20.565Z,.35
2022-08-19T03:26:02.765Z,0
2022-08-19T03:26:23.938Z,.35
2022-08-19T03:26:53.124Z,0
2022-08-19T03:27:28.153Z,0
2022-08-19T03:27:57.086Z,.35
2022-08-19T03:28:27.926Z,.35
2022-08-19T03:28:58.946Z,0
2022-08-19T03:29:30.633Z,0
2022-08-19T03:29:59.404Z,0
2022-08-19T03:30:30.346Z,.35
2022-08-19T03:31:01.498Z,.72
2022-08-19T03:31:45.588Z,1.80
2022-08-19T03:32:04.790Z,.72
2022-08-19T03:32:34.319Z,0
2022-08-19T03:33:06.904Z,0
2022-08-19T03:33:37.877Z,.72
2022-08-19T03:34:08.366Z,1.07
2022-08-19T03:34:39.538Z,.72
2022-08-19T03:35:11.005Z,.35
2022-08-19T03:35:43.882Z,0
2022-08-19T03:36:13.676Z,.35
2022-08-19T03:36:42.326Z,.72
2022-08-19T03:37:13.043Z,1.07
2022-08-19T03:37:44.067Z,0
2022-08-19T03:38:15.939Z,0
2022-08-19T03:38:47.510Z,0
2022-08-19T03:39:18.615Z,.72
2022-08-19T03:39:48.470Z,1.07
2022-08-19T03:40:19.561Z,1.80
2022-08-19T03:40:50.865Z,1.07
2022-08-19T03:41:20.763Z,.35
2022-08-19T03:42:32.285Z,0
2022-08-19T03:42:54.629Z,1.43
2022-08-19T03:43:26.876Z,1.07
2022-08-19T03:43:58.828Z,.35
2022-08-19T03:44:28.344Z,.35
2022-08-19T03:44:59.505Z,0
2022-08-19T03:45:29.962Z,0
2022-08-19T03:46:07.251Z,0
2022-08-19T03:46:31.168Z,1.43
2022-08-19T03:47:04.557Z,0
2022-08-19T03:47:32.980Z,0
2022-08-19T03:48:04.546Z,0
2022-08-19T03:48:42.612Z,0
2022-08-19T03:49:09.558Z,0
2022-08-19T03:49:38.406Z,.35
2022-08-19T03:50:39.865Z,1.07
2022-08-19T03:51:10.365Z,.35
2022-08-19T03:51:43.349Z,.72
2022-08-19T03:52:12.216Z,.35
2022-08-19T03:52:45.295Z,.35
2022-08-19T03:53:18.617Z,1.07
2022-08-19T03:54:17.983Z,0
2022-08-19T03:54:49.727Z,0
2022-08-19T03:55:19.795Z,0
2022-08-19T03:55:53.737Z,0
2022-08-19T03:56:20.312Z,0
2022-08-19T03:56:51.130Z,.35
2022-08-19T03:57:32.050Z,1.07
2022-08-19T03:57:58.653Z,1.80
2022-08-19T03:58:33.291Z,.72
2022-08-19T03:58:56.057Z,1.07
2022-08-19T03:59:26.181Z,0
2022-08-19T04:00:12.859Z,1.43
2022-08-19T04:00:31.151Z,.35
2022-08-19T04:01:00.409Z,1.07
2022-08-19T04:01:35.162Z,.35
2022-08-19T04:02:04.251Z,0
2022-08-19T04:02:33.336Z,.35
2022-08-19T04:03:04.408Z,.35
2022-08-19T04:03:35.689Z,.35
2022-08-19T04:04:06.862Z,0
2022-08-19T04:04:37.336Z,1.43
2022-08-19T04:05:08.395Z,2.15
2022-08-19T04:05:39.073Z,2.15
2022-08-19T04:06:13.374Z,1.43
2022-08-19T04:06:41.234Z,1.07
2022-08-19T04:07:11.263Z,.35
2022-08-19T04:07:44.039Z,.72
2022-08-19T04:08:14.149Z,1.07
2022-08-19T04:08:47.523Z,1.07
2022-08-19T04:09:15.005Z,1.43
2022-08-19T04:09:51.889Z,1.80
2022-08-19T04:10:18.786Z,.72
2022-08-19T04:10:49.509Z,.72
2022-08-19T04:11:20.324Z,.35
2022-08-19T04:12:05.296Z,1.07
2022-08-19T04:12:25.881Z,.35
2022-08-19T04:12:53.091Z,1.43
2022-08-19T04:13:24.109Z,1.80
2022-08-19T04:13:54.263Z,.72
2022-08-19T04:14:27.946Z,2.15
2022-08-19T04:14:56.451Z,1.07
2022-08-19T04:15:27.455Z,1.43
2022-08-19T04:15:58.562Z,1.43
2022-08-19T04:16:35.074Z,0
2022-08-19T04:17:01.263Z,.35
2022-08-19T04:17:32.005Z,1.07
2022-08-19T04:18:02.487Z,.35
2022-08-19T04:18:36.450Z,1.43
2022-08-19T04:19:04.839Z,.72
2022-08-19T04:19:38.458Z,0
2022-08-19T04:20:07.204Z,1.07
2022-08-19T04:20:55.028Z,.35
2022-08-19T04:21:10.719Z,1.80
2022-08-19T04:21:40.106Z,.35
2022-08-19T04:22:10.259Z,1.80
2022-08-19T04:22:42.306Z,1.43
2022-08-19T04:23:13.846Z,1.80
2022-08-19T04:23:44.790Z,1.80
2022-08-19T04:24:14.976Z,1.43
2022-08-19T04:24:46.951Z,.72
2022-08-19T04:25:16.424Z,1.80
2022-08-19T04:25:47.126Z,1.43
2022-08-19T04:26:19.507Z,2.15
2022-08-19T04:26:49.900Z,1.43
2022-08-19T04:27:20.838Z,1.07
2022-08-19T04:27:52.299Z,1.43
2022-08-19T04:28:23.858Z,.72
2022-08-19T04:29:12.787Z,1.80
2022-08-19T04:29:24.157Z,.72
2022-08-19T04:29:57.162Z,1.07
2022-08-19T04:30:31.245Z,1.43
2022-08-19T04:31:02.871Z,1.43
2022-08-19T04:31:29.826Z,1.43
2022-08-19T04:32:09.295Z,1.07
2022-08-19T04:32:32.173Z,0
2022-08-19T04:33:02.950Z,.72
2022-08-19T04:33:33.502Z,.72
2022-08-19T04:34:04.248Z,1.07
2022-08-19T04:35:02.575Z,1.43
2022-08-19T04:36:15.073Z,1.07
2022-08-19T04:36:39.786Z,1.07
2022-08-19T04:37:14.202Z,2.15
2022-08-19T04:37:40.924Z,1.80
2022-08-19T04:38:16.296Z,2.88
2022-08-19T04:38:42.327Z,1.80
2022-08-19T04:39:20.474Z,1.43
2022-08-19T04:39:44.247Z,.35
2022-08-19T04:40:46.544Z,1.07
2022-08-19T04:41:17.904Z,1.07
2022-08-19T04:41:50.746Z,.35
2022-08-19T04:42:20.786Z,.72
2022-08-19T04:42:51.469Z,1.43
2022-08-19T04:43:21.877Z,2.15
2022-08-19T04:43:52.234Z,1.43
2022-08-19T04:44:23.623Z,.72
2022-08-19T04:44:58.043Z,.35
2022-08-19T04:45:26.615Z,1.07
2022-08-19T04:46:00.945Z,2.15
2022-08-19T04:46:39.642Z,2.15
2022-08-19T04:46:59.972Z,1.80
2022-08-19T04:47:58.270Z,1.43
2022-08-19T04:48:32.602Z,2.15
2022-08-19T04:49:13.307Z,.72
2022-08-19T04:49:35.081Z,1.43
2022-08-19T04:50:06.569Z,1.80
2022-08-19T04:50:37.927Z,1.43
2022-08-19T04:51:07.705Z,2.15
2022-08-19T04:51:39.164Z,2.88
2022-08-19T04:52:10.763Z,.72
2022-08-19T04:52:41.020Z,.35
2022-08-19T04:53:11.526Z,1.80
2022-08-19T04:53:41.884Z,2.88
2022-08-19T04:54:12.569Z,1.43
2022-08-19T04:54:43.407Z,.35
2022-08-19T04:55:14.883Z,1.07
2022-08-19T04:55:46.541Z,.35
2022-08-19T04:56:19.115Z,0
2022-08-19T04:56:49.829Z,0
2022-08-19T04:57:19.999Z,1.07
2022-08-19T04:57:50.983Z,1.43
2022-08-19T04:58:22.340Z,1.07
2022-08-19T04:58:51.679Z,1.80
2022-08-19T04:59:25.302Z,1.43
2022-08-19T04:59:53.403Z,1.43
2022-08-19T05:00:26.143Z,.35
2022-08-19T05:00:58.473Z,.72
2022-08-19T05:01:29.716Z,1.43
2022-08-19T05:01:59.905Z,1.43
2022-08-19T05:03:07.699Z,1.43
2022-08-19T05:03:37.078Z,.35
2022-08-19T05:04:01.895Z,2.88
2022-08-19T05:04:33.886Z,3.23
2022-08-19T05:05:30.724Z,1.43
2022-08-19T05:05:51.719Z,1.43
2022-08-19T05:06:09.982Z,1.07
2022-08-19T05:06:39.956Z,1.07
2022-08-19T05:07:08.831Z,1.43
2022-08-19T05:07:41.313Z,.35
2022-08-19T05:08:10.619Z,1.80
2022-08-19T05:08:41.068Z,1.43
2022-08-19T05:09:11.587Z,2.52
2022-08-19T05:09:58.036Z,2.15
2022-08-19T05:10:14.160Z,1.07
2022-08-19T05:10:48.227Z,1.43
2022-08-19T05:11:26.307Z,1.07
2022-08-19T05:11:51.307Z,3.23
2022-08-19T05:12:18.065Z,1.80
2022-08-19T05:12:50.567Z,1.07
2022-08-19T05:23:25.300Z,1.43
2022-08-19T05:23:41.933Z,2.15
2022-08-19T05:24:16.301Z,1.07
2022-08-19T05:25:02.411Z,1.43
2022-08-19T05:25:19.578Z,1.07
2022-08-19T05:25:50.700Z,1.80
2022-08-19T05:26:14.830Z,.72
2022-08-19T05:26:47.753Z,1.43
2022-08-19T05:27:16.786Z,1.07
2022-08-19T05:27:47.413Z,.72
2022-08-19T05:28:20.169Z,1.07
2022-08-19T05:28:54.817Z,2.15
2022-08-19T05:29:22.486Z,2.15
2022-08-19T05:29:52.232Z,1.07
2022-08-19T05:30:33.459Z,0
2022-08-19T05:30:53.726Z,.35
2022-08-19T05:31:25.304Z,1.07
2022-08-19T05:31:57.447Z,1.07
2022-08-19T05:32:27.000Z,1.43
2022-08-19T05:32:57.363Z,1.07
2022-08-19T05:33:40.102Z,1.80
2022-08-19T05:34:01.241Z,1.43
2022-08-19T05:34:43.353Z,1.43
2022-08-19T05:35:11.062Z,1.43
2022-08-19T05:35:34.683Z,1.07
2022-08-19T05:36:04.631Z,1.43
2022-08-19T05:36:51.101Z,1.07
2022-08-19T05:37:07.302Z,1.80
2022-08-19T05:37:37.165Z,.72
2022-08-19T05:40:36.224Z,2.52
2022-08-19T05:42:40.480Z,1.43
2022-08-19T05:42:55.221Z,2.15
2022-08-19T05:43:20.338Z,2.15
2022-08-19T05:44:06.540Z,1.43
2022-08-19T05:44:22.855Z,1.43
2022-08-19T05:45:08.174Z,.35
2022-08-19T05:45:32.360Z,1.07
2022-08-19T05:45:53.119Z,.72
2022-08-19T05:46:28.053Z,.35
2022-08-19T05:47:02.136Z,1.43
2022-08-19T05:47:29.482Z,.35
2022-08-19T05:47:58.647Z,1.07
2022-08-19T05:48:27.466Z,1.07
2022-08-19T05:48:59.850Z,2.52
2022-08-19T05:49:31.450Z,1.43
2022-08-19T05:50:05.258Z,.35
2022-08-19T05:50:32.560Z,.35
2022-08-19T05:51:03.363Z,0
2022-08-19T05:51:34.180Z,.35
2022-08-19T05:52:04.959Z,1.07
2022-08-19T05:52:53.322Z,1.07
2022-08-19T05:53:06.595Z,.35
2022-08-19T05:53:37.581Z,1.07
2022-08-19T05:54:26.402Z,1.43
2022-08-19T05:54:41.407Z,1.43
2022-08-19T05:55:13.190Z,1.43
2022-08-19T05:55:42.954Z,1.43
2022-08-19T05:56:13.218Z,1.43
2022-08-19T05:56:43.572Z,1.80
2022-08-19T05:57:14.492Z,1.43
2022-08-19T05:57:46.763Z,2.88
2022-08-19T05:58:18.302Z,0
2022-08-19T05:58:47.876Z,0
2022-08-19T05:59:22.943Z,1.43
2022-08-19T05:59:57.610Z,.72
2022-08-19T06:00:58.451Z,1.07
2022-08-19T06:01:25.856Z,.35
2022-08-19T06:01:53.778Z,1.07
2022-08-19T06:02:26.674Z,2.15
2022-08-19T06:03:14.334Z,.35
2022-08-19T06:03:26.447Z,.35
2022-08-19T06:03:58.523Z,0
2022-08-19T06:04:28.538Z,0
2022-08-19T06:05:09.130Z,1.43
2022-08-19T06:05:32.459Z,1.43
2022-08-19T06:06:02.889Z,1.07
2022-08-19T06:06:33.276Z,1.43
2022-08-19T06:08:19.042Z,3.23
2022-08-19T06:08:37.043Z,1.43
2022-08-19T06:09:07.754Z,2.15
2022-08-19T06:09:39.404Z,1.07
2022-08-19T06:10:12.278Z,1.07
2022-08-19T06:10:42.223Z,0
2022-08-19T06:11:13.285Z,.35
2022-08-19T06:12:14.557Z,1.43
2022-08-19T06:12:58.200Z,2.15
2022-08-19T06:13:16.094Z,.35
2022-08-19T06:13:59.754Z,1.07
2022-08-19T06:14:17.767Z,1.07
2022-08-19T06:15:00.606Z,1.80
2022-08-19T06:15:21.602Z,2.15
2022-08-19T06:15:54.110Z,1.43
2022-08-19T06:16:24.778Z,1.80
2022-08-19T06:16:53.516Z,2.88
2022-08-19T06:17:24.012Z,1.43
2022-08-19T06:17:54.830Z,.35
2022-08-19T06:18:26.016Z,1.07
2022-08-19T06:19:02.154Z,0
2022-08-19T06:19:28.248Z,.35
2022-08-19T06:20:03.123Z,.72
2022-08-19T06:20:54.601Z,1.07
2022-08-19T06:21:02.751Z,1.43
2022-08-19T06:21:32.744Z,1.80
2022-08-19T06:22:04.748Z,2.15
2022-08-19T06:22:36.904Z,.35
2022-08-19T06:23:06.668Z,.35
2022-08-19T06:23:35.855Z,1.80
2022-08-19T06:24:07.125Z,1.43
2022-08-19T06:24:43.056Z,0
2022-08-19T06:25:09.302Z,0
2022-08-19T06:25:39.867Z,1.07
2022-08-19T06:26:12.081Z,2.15
2022-08-19T06:26:43.118Z,2.15
2022-08-19T06:27:15.556Z,1.80
2022-08-19T06:27:58.957Z,1.80
2022-08-19T06:28:18.259Z,1.43
2022-08-19T06:28:45.844Z,.35
2022-08-19T06:29:23.700Z,1.07
2022-08-19T06:29:48.034Z,.35
2022-08-19T06:30:20.288Z,0
2022-08-19T06:30:50.325Z,.35
2022-08-19T06:31:27.027Z,1.07
2022-08-19T06:31:52.372Z,.35
2022-08-19T06:32:24.299Z,1.07
2022-08-19T06:32:55.159Z,1.07
2022-08-19T06:33:26.232Z,2.15
2022-08-19T06:33:56.353Z,0
2022-08-19T06:34:27.654Z,.35
2022-08-19T06:35:00.041Z,0
2022-08-19T06:35:34.433Z,1.07
2022-08-19T06:36:04.757Z,0
2022-08-19T06:36:32.077Z,0
2022-08-19T06:37:03.720Z,1.07
2022-08-19T06:37:37.221Z,.35
2022-08-19T06:38:05.407Z,1.43
2022-08-19T06:38:36.377Z,1.07
2022-08-19T06:39:24.555Z,.35
2022-08-19T06:39:37.064Z,1.43
2022-08-19T06:40:08.802Z,2.15
2022-08-19T06:40:40.128Z,.72
2022-08-19T06:41:12.100Z,.35
2022-08-19T06:41:45.867Z,1.43
2022-08-19T06:42:12.913Z,.35
2022-08-19T06:42:55.088Z,.35
2022-08-19T06:43:15.738Z,1.43
2022-08-19T06:43:46.226Z,1.07
2022-08-19T06:44:16.747Z,0
2022-08-19T06:44:55.226Z,1.80
2022-08-19T06:45:24.502Z,.35
2022-08-19T06:45:54.415Z,.72
2022-08-19T06:46:19.801Z,1.80
2022-08-19T06:46:54.928Z,.35
2022-08-19T06:47:28.638Z,.72
2022-08-19T06:47:54.691Z,1.80
2022-08-19T06:48:25.765Z,1.43
2022-08-19T06:48:55.463Z,2.52
2022-08-19T06:49:28.220Z,1.07
2022-08-19T06:50:06.245Z,2.88
2022-08-19T06:50:28.525Z,1.43
2022-08-19T06:51:19.339Z,.35
2022-08-19T06:52:07.293Z,1.43
2022-08-19T06:52:38.594Z,0
2022-08-19T06:53:05.066Z,.72
2022-08-19T06:53:44.674Z,2.15
2022-08-19T06:54:06.332Z,1.07
2022-08-19T06:54:37.804Z,1.80
2022-08-19T06:55:08.232Z,.35
2022-08-19T06:55:38.143Z,1.07
2022-08-19T06:56:09.261Z,1.43
2022-08-19T06:56:40.205Z,.35
2022-08-19T06:57:15.249Z,.35
2022-08-19T06:57:42.100Z,0
2022-08-19T06:58:14.290Z,1.43
2022-08-19T06:58:45.896Z,1.43
2022-08-19T06:59:32.879Z,1.07
2022-08-19T06:59:46.401Z,2.52
2022-08-19T07:00:38.600Z,2.52
2022-08-19T07:00:47.931Z,2.52
2022-08-19T07:01:22.475Z,3.23
2022-08-19T07:01:49.674Z,2.15
2022-08-19T07:02:25.710Z,1.80
2022-08-19T07:02:55.775Z,0
2022-08-19T07:03:25.190Z,0
2022-08-19T07:03:55.503Z,0
2022-08-19T07:04:26.135Z,1.43
2022-08-19T07:04:58.532Z,1.80
2022-08-19T07:05:26.850Z,1.43
2022-08-19T07:05:58.839Z,1.43
2022-08-19T07:06:43.992Z,2.15
2022-08-19T07:07:07.798Z,2.88
2022-08-19T07:07:31.528Z,2.15
2022-08-19T07:08:05.130Z,1.43
2022-08-19T07:08:33.880Z,1.43
2022-08-19T07:09:21.348Z,2.15
2022-08-19T07:09:36.355Z,2.15
2022-08-19T07:10:08.414Z,1.80
2022-08-19T07:10:38.422Z,1.43
2022-08-19T07:11:09.399Z,1.43
2022-08-19T07:11:39.159Z,1.43
2022-08-19T07:12:41.400Z,4.31
2022-08-19T07:13:12.669Z,2.88
2022-08-19T07:13:43.607Z,3.60
2022-08-19T07:14:19.068Z,2.52
2022-08-19T07:14:47.803Z,1.80
2022-08-19T07:15:17.895Z,1.07
2022-08-19T07:15:49.101Z,3.23
2022-08-19T07:16:19.393Z,0
2022-08-19T07:16:48.884Z,3.60
2022-08-19T07:17:20.500Z,3.23
2022-08-19T07:18:11.833Z,2.15
2022-08-19T07:18:22.580Z,2.52
2022-08-19T07:19:00.274Z,2.88
2022-08-19T07:19:25.695Z,1.43
2022-08-19T07:19:58.020Z,1.07
2022-08-19T07:20:29.589Z,1.07
2022-08-19T07:21:17.027Z,1.80
2022-08-19T07:21:29.954Z,4.31
2022-08-19T07:22:02.244Z,1.43
2022-08-19T07:22:29.865Z,3.60
2022-08-19T07:23:01.347Z,1.43
2022-08-19T07:23:31.864Z,.72
2022-08-19T07:24:07.233Z,1.43
2022-08-19T07:24:35.742Z,1.80
2022-08-19T07:25:09.236Z,.72
2022-08-19T07:25:39.022Z,2.88
2022-08-19T07:26:10.055Z,2.15
2022-08-19T07:26:40.830Z,3.23
2022-08-19T07:27:15.340Z,2.15
2022-08-19T07:27:46.284Z,3.23
2022-08-19T07:28:18.960Z,.72
2022-08-19T07:28:46.035Z,2.88
2022-08-19T07:29:18.290Z,2.88
2022-08-19T07:29:46.058Z,.72
2022-08-19T07:30:18.172Z,.72
2022-08-19T07:30:46.951Z,2.88
2022-08-19T07:31:21.523Z,1.43
2022-08-19T07:31:50.861Z,2.52
2022-08-19T07:32:22.452Z,2.88
2022-08-19T07:32:51.535Z,1.80
2022-08-19T07:33:22.257Z,1.43
2022-08-19T07:33:51.905Z,1.07
2022-08-19T07:34:23.357Z,1.43
2022-08-19T07:34:57.092Z,1.80
2022-08-19T07:35:27.202Z,2.15
2022-08-19T07:36:13.437Z,1.43
2022-08-19T07:36:29.116Z,1.80
2022-08-19T07:36:58.920Z,2.15
2022-08-19T07:37:32.798Z,3.60
2022-08-19T07:38:02.743Z,3.23
2022-08-19T07:38:31.045Z,1.80
2022-08-19T07:39:02.420Z,1.80
2022-08-19T07:39:38.221Z,1.07
2022-08-19T07:40:05.804Z,1.43
2022-08-19T07:40:37.038Z,1.07
2022-08-19T07:41:07.836Z,1.80
2022-08-19T07:41:37.726Z,3.60
2022-08-19T07:42:08.327Z,2.88